Time;durP1;ratioP1;P1;durP2;ratioP2;P2;SDS_P1;SDS_P2;PMS_P1;PMS_P2;Temp;Humidity;BMP_temperature;BMP_pressure;BME280_temperature;BME280_humidity;BME280_pressure;Samples;Min_cycle;Max_cycle;Signal;HPM_P1;HPM_P2
2020/12/13 00:01:46;;;;;;;18.25;10.50;;;;;;;;;;4949092;29;20054;-81
2020/12/13 00:04:27;;;;;;;16.83;9.75;;;;;;;;;;4962447;28;20075;-78
2020/12/13 00:07:08;;;;;;;17.75;9.95;;;;;;;;;;4970684;28;20158;-78
2020/12/13 00:09:56;;;;;;;16.15;9.88;;;;;;;;;;4960320;28;20045;-79
2020/12/13 00:12:32;;;;;;;15.00;9.40;;;;;;;;;;4959005;28;20499;-81
2020/12/13 00:15:21;;;;;;;17.15;9.30;;;;;;;;;;4942655;29;20047;-81
2020/12/13 00:18:06;;;;;;;16.70;9.80;;;;;;;;;;4936281;29;20048;-79
2020/12/13 00:20:51;;;;;;;16.70;9.40;;;;;;;;;;4918058;29;20094;-80
2020/12/13 00:23:26;;;;;;;17.75;9.93;;;;;;;;;;4960695;28;20075;-77
2020/12/13 00:26:00;;;;;;;17.13;10.63;;;;;;;;;;4939186;29;20054;-79
2020/12/13 00:28:43;;;;;;;18.60;10.52;;;;;;;;;;4954840;28;20130;-77
2020/12/13 00:31:20;;;;;;;18.98;11.48;;;;;;;;;;4946057;29;20406;-78
2020/12/13 00:33:53;;;;;;;21.73;11.52;;;;;;;;;;4937957;29;20066;-78
2020/12/13 00:36:54;;;;;;;19.92;12.18;;;;;;;;;;4943918;29;20074;-79
2020/12/13 00:39:30;;;;;;;19.50;11.48;;;;;;;;;;4952217;28;20043;-77
2020/12/13 00:42:21;;;;;;;24.30;12.35;;;;;;;;;;4931605;28;20202;-78
2020/12/13 00:45:04;;;;;;;20.17;11.88;;;;;;;;;;4923762;29;20063;-79
2020/12/13 00:47:34;;;;;;;20.30;11.85;;;;;;;;;;4947911;29;20040;-78
2020/12/13 00:50:16;;;;;;;20.00;11.23;;;;;;;;;;4967461;28;20051;-79
2020/12/13 00:52:48;;;;;;;20.58;11.93;;;;;;;;;;4944554;28;20039;-80
2020/12/13 00:55:22;;;;;;;21.83;11.25;;;;;;;;;;4944925;29;20116;-80
2020/12/13 00:57:58;;;;;;;19.35;11.00;;;;;;;;;;4956450;29;20124;-78
2020/12/13 01:00:30;;;;;;;18.85;10.95;;;;;;;;;;4947784;28;20523;-79
2020/12/13 01:03:04;;;;;;;20.85;10.82;;;;;;;;;;4922369;29;20047;-79
2020/12/13 01:05:43;;;;;;;22.08;11.45;;;;;;;;;;4948450;28;20050;-79
2020/12/13 01:08:23;;;;;;;17.88;10.18;;;;;;;;;;4971528;28;20051;-79
2020/12/13 01:10:55;;;;;;;19.13;10.82;;;;;;;;;;4946100;28;20065;-78
2020/12/13 01:13:36;;;;;;;19.42;10.60;;;;;;;;;;4940759;29;20053;-79
2020/12/13 01:16:26;;;;;;;21.30;11.25;;;;;;;;;;4922818;29;20653;-80
2020/12/13 01:19:02;;;;;;;19.33;10.38;;;;;;;;;;4939702;29;20051;-77
2020/12/13 01:24:36;;;;;;;18.70;10.75;;;;;;;;;;4955095;28;20043;-79
2020/12/13 01:27:20;;;;;;;19.52;10.65;;;;;;;;;;4924482;29;20063;-78
2020/12/13 01:29:56;;;;;;;20.20;10.93;;;;;;;;;;4946723;28;20053;-78
2020/12/13 01:32:42;;;;;;;20.10;10.40;;;;;;;;;;4975905;28;20142;-79
2020/12/13 01:35:15;;;;;;;17.90;10.43;;;;;;;;;;4945817;29;20138;-80
2020/12/13 01:38:05;;;;;;;19.63;10.98;;;;;;;;;;4941085;29;20043;-79
2020/12/13 01:40:44;;;;;;;20.60;11.52;;;;;;;;;;4954753;28;20202;-78
2020/12/13 01:43:36;;;;;;;19.33;10.90;;;;;;;;;;4955405;29;20583;-78
2020/12/13 01:46:04;;;;;;;22.58;11.82;;;;;;;;;;4963059;28;20047;-77
2020/12/13 01:48:40;;;;;;;19.38;11.02;;;;;;;;;;4965666;28;20853;-79
2020/12/13 01:53:58;;;;;;;;;;;;;;;;;;4954557;29;20161;-78
2020/12/13 01:56:28;;;;;;;19.63;10.55;;;;;;;;;;4924982;29;19930;-78
2020/12/13 01:58:57;;;;;;;21.15;11.30;;;;;;;;;;4947724;28;20071;-77
2020/12/13 02:01:25;;;;;;;19.08;10.90;;;;;;;;;;4956930;29;20067;-79
2020/12/13 02:03:54;;;;;;;19.95;10.25;;;;;;;;;;4937679;29;20044;-78
2020/12/13 02:06:24;;;;;;;17.92;10.40;;;;;;;;;;4939031;29;20043;-77
2020/12/13 02:08:54;;;;;;;19.02;10.48;;;;;;;;;;4954593;29;20471;-79
2020/12/13 02:11:20;;;;;;;18.30;10.48;;;;;;;;;;4928799;29;20102;-78
2020/12/13 02:13:48;;;;;;;18.83;10.23;;;;;;;;;;4938772;29;20062;-78
2020/12/13 02:16:15;;;;;;;19.90;9.82;;;;;;;;;;4940630;28;20061;-77
2020/12/13 02:18:42;;;;;;;19.60;10.10;;;;;;;;;;4955667;29;20122;-79
2020/12/13 02:21:12;;;;;;;19.15;9.80;;;;;;;;;;4938334;29;20118;-77
2020/12/13 02:23:42;;;;;;;18.00;9.98;;;;;;;;;;4946502;28;20046;-76
2020/12/13 02:26:13;;;;;;;19.25;10.35;;;;;;;;;;4975243;28;20043;-77
2020/12/13 02:28:39;;;;;;;19.85;10.45;;;;;;;;;;4966936;28;20055;-77
2020/12/13 02:31:08;;;;;;;18.88;10.50;;;;;;;;;;4955115;29;20051;-78
2020/12/13 02:33:37;;;;;;;19.75;10.73;;;;;;;;;;4938464;29;20078;-79
2020/12/13 02:36:07;;;;;;;18.55;10.80;;;;;;;;;;4947058;29;20102;-79
2020/12/13 02:38:33;;;;;;;21.58;11.18;;;;;;;;;;4936973;29;20062;-79
2020/12/13 02:41:01;;;;;;;17.92;9.88;;;;;;;;;;4938566;29;20055;-77
2020/12/13 02:43:28;;;;;;;18.05;10.05;;;;;;;;;;4975261;28;20098;-80
2020/12/13 02:45:55;;;;;;;22.75;10.35;;;;;;;;;;4960936;28;20065;-80
2020/12/13 02:48:21;;;;;;;19.38;10.15;;;;;;;;;;4957607;29;20075;-79
2020/12/13 02:50:48;;;;;;;20.92;9.77;;;;;;;;;;4927761;29;20048;-78
2020/12/13 02:53:14;;;;;;;16.75;9.27;;;;;;;;;;4938269;29;20507;-79
2020/12/13 02:55:44;;;;;;;16.88;9.40;;;;;;;;;;4964348;28;20035;-77
2020/12/13 02:58:10;;;;;;;16.55;9.32;;;;;;;;;;4957877;28;20644;-79
2020/12/13 03:00:37;;;;;;;19.30;10.25;;;;;;;;;;4940395;28;20042;-79
2020/12/13 03:03:04;;;;;;;15.00;8.27;;;;;;;;;;4954099;28;20050;-78
2020/12/13 03:05:30;;;;;;;15.95;8.57;;;;;;;;;;4936641;29;20531;-79
2020/12/13 03:07:58;;;;;;;17.98;9.02;;;;;;;;;;4932745;29;20104;-79
2020/12/13 03:10:24;;;;;;;15.43;8.68;;;;;;;;;;4948580;29;20538;-78
2020/12/13 03:12:53;;;;;;;16.33;8.25;;;;;;;;;;4950139;28;20082;-78
2020/12/13 03:15:20;;;;;;;14.85;8.50;;;;;;;;;;4937832;29;20058;-79
2020/12/13 03:17:49;;;;;;;16.17;8.65;;;;;;;;;;4937380;28;20043;-78
2020/12/13 03:20:17;;;;;;;14.95;8.00;;;;;;;;;;4949198;28;20054;-79
2020/12/13 03:22:44;;;;;;;16.40;8.77;;;;;;;;;;4956059;28;20074;-78
2020/12/13 03:25:11;;;;;;;16.02;8.48;;;;;;;;;;4954230;28;20038;-78
2020/12/13 03:27:38;;;;;;;15.93;8.40;;;;;;;;;;4972892;28;20047;-77
2020/12/13 03:30:04;;;;;;;15.25;8.73;;;;;;;;;;4935597;29;20043;-78
2020/12/13 03:32:35;;;;;;;15.05;8.32;;;;;;;;;;4967614;28;20498;-78
2020/12/13 03:35:11;;;;;;;18.13;9.65;;;;;;;;;;4955595;28;20046;-79
2020/12/13 03:37:42;;;;;;;16.63;9.05;;;;;;;;;;4940090;28;20507;-79
2020/12/13 03:40:14;;;;;;;18.30;9.60;;;;;;;;;;4939888;29;20638;-79
2020/12/13 03:42:44;;;;;;;17.02;9.18;;;;;;;;;;4951501;28;20192;-80
2020/12/13 03:45:10;;;;;;;16.58;9.05;;;;;;;;;;4961360;28;20198;-79
2020/12/13 03:47:38;;;;;;;16.25;9.45;;;;;;;;;;4931039;28;20489;-79
2020/12/13 03:50:06;;;;;;;18.42;9.85;;;;;;;;;;4937710;29;20137;-78
2020/12/13 03:52:33;;;;;;;17.73;9.68;;;;;;;;;;4939648;29;20050;-79
2020/12/13 03:55:03;;;;;;;16.95;9.18;;;;;;;;;;4942076;28;20043;-80
2020/12/13 03:57:33;;;;;;;16.20;9.13;;;;;;;;;;4947979;29;20118;-78
2020/12/13 04:00:04;;;;;;;18.02;9.30;;;;;;;;;;4957967;28;20047;-79
2020/12/13 04:02:31;;;;;;;19.33;10.00;;;;;;;;;;4934275;28;20047;-80
2020/12/13 04:05:04;;;;;;;17.58;10.00;;;;;;;;;;4976274;28;20054;-77
2020/12/13 04:07:31;;;;;;;17.25;10.27;;;;;;;;;;4942583;28;20047;-78
2020/12/13 04:10:06;;;;;;;20.20;10.18;;;;;;;;;;4937658;29;20572;-78
2020/12/13 04:12:38;;;;;;;18.25;9.80;;;;;;;;;;4937419;28;20057;-77
2020/12/13 04:15:07;;;;;;;18.80;10.00;;;;;;;;;;4938254;29;20053;-78
2020/12/13 04:17:35;;;;;;;19.65;10.23;;;;;;;;;;4938772;29;20047;-79
2020/12/13 04:20:03;;;;;;;18.27;9.85;;;;;;;;;;4936667;29;20674;-77
2020/12/13 04:22:30;;;;;;;19.15;10.18;;;;;;;;;;4938672;29;20506;-79
2020/12/13 04:24:57;;;;;;;18.33;10.15;;;;;;;;;;4937373;29;20076;-77
2020/12/13 04:27:29;;;;;;;18.52;9.80;;;;;;;;;;4937556;29;20043;-78
2020/12/13 04:29:56;;;;;;;19.58;9.75;;;;;;;;;;4922117;29;20058;-77
2020/12/13 04:32:24;;;;;;;18.50;10.02;;;;;;;;;;4949799;28;20530;-78
2020/12/13 04:34:51;;;;;;;20.30;10.82;;;;;;;;;;4958065;28;20074;-79
2020/12/13 04:37:23;;;;;;;22.50;10.73;;;;;;;;;;4957766;28;20510;-77
2020/12/13 04:39:53;;;;;;;21.60;10.70;;;;;;;;;;4940494;29;20051;-78
2020/12/13 04:42:23;;;;;;;19.67;10.07;;;;;;;;;;4956404;28;20653;-79
2020/12/13 04:44:53;;;;;;;19.73;10.68;;;;;;;;;;4940109;29;20043;-79
2020/12/13 04:47:20;;;;;;;21.15;10.93;;;;;;;;;;4941560;29;20070;-80
2020/12/13 04:49:48;;;;;;;21.50;11.00;;;;;;;;;;4940632;29;20046;-81
2020/12/13 04:52:16;;;;;;;21.63;11.10;;;;;;;;;;4957262;29;20047;-79
2020/12/13 04:54:48;;;;;;;21.40;10.90;;;;;;;;;;4935257;29;20043;-79
2020/12/13 04:57:29;;;;;;;21.42;11.07;;;;;;;;;;4956117;28;20047;-77
2020/12/13 05:00:01;;;;;;;20.50;10.63;;;;;;;;;;4961770;28;20302;-77
2020/12/13 05:02:44;;;;;;;23.40;11.35;;;;;;;;;;4953945;29;20054;-78
2020/12/13 05:05:11;;;;;;;20.08;10.63;;;;;;;;;;4943489;28;20047;-78
2020/12/13 05:07:45;;;;;;;22.65;11.60;;;;;;;;;;4961388;28;20050;-80
2020/12/13 05:10:13;;;;;;;21.90;11.43;;;;;;;;;;4938835;28;20162;-79
2020/12/13 05:12:42;;;;;;;20.48;11.27;;;;;;;;;;4958906;28;20054;-80
2020/12/13 05:15:11;;;;;;;21.83;11.35;;;;;;;;;;4946810;28;20503;-79
2020/12/13 05:17:42;;;;;;;21.25;11.18;;;;;;;;;;4935911;29;20566;-77
2020/12/13 05:20:09;;;;;;;23.25;11.77;;;;;;;;;;4941387;29;20047;-79
2020/12/13 05:22:39;;;;;;;23.40;11.35;;;;;;;;;;4943515;29;20035;-79
2020/12/13 05:25:11;;;;;;;24.98;11.60;;;;;;;;;;4953935;28;20118;-79
2020/12/13 05:27:41;;;;;;;22.40;12.13;;;;;;;;;;4944092;29;20643;-79
2020/12/13 05:30:11;;;;;;;24.40;12.10;;;;;;;;;;4922683;29;20047;-78
2020/12/13 05:32:41;;;;;;;22.17;11.32;;;;;;;;;;4942177;29;20048;-80
2020/12/13 05:37:51;;;;;;;21.92;11.82;;;;;;;;;;5017171;28;20133;-82
2020/12/13 17:53:25;;;;;;;22.63;12.88;;;;;;;;;;4997271;28;20046;-85
2020/12/13 17:58:52;;;;;;;24.83;13.18;;;;;;;;;;4988200;28;20064;-83
2020/12/13 18:01:21;;;;;;;26.20;13.90;;;;;;;;;;4983748;28;20085;-88
2020/12/13 18:03:54;;;;;;;26.23;14.13;;;;;;;;;;4991746;28;20116;-87
2020/12/13 18:06:21;;;;;;;21.95;12.93;;;;;;;;;;4970866;28;20054;-86
2020/12/13 18:08:49;;;;;;;23.98;12.68;;;;;;;;;;4981307;28;20073;-83
2020/12/13 18:11:17;;;;;;;23.02;12.73;;;;;;;;;;5005232;28;20054;-87
2020/12/13 18:13:44;;;;;;;23.02;13.00;;;;;;;;;;4984835;28;20057;-84
2020/12/13 18:16:11;;;;;;;22.35;11.85;;;;;;;;;;5007774;28;20049;-82
2020/12/13 18:18:38;;;;;;;20.30;11.98;;;;;;;;;;4999768;28;20054;-85
2020/12/13 18:21:09;;;;;;;20.42;11.32;;;;;;;;;;4985627;28;20046;-88
2020/12/13 18:23:42;;;;;;;23.48;13.45;;;;;;;;;;4990804;28;20054;-84
2020/12/13 18:26:25;;;;;;;20.38;11.75;;;;;;;;;;4983610;28;20057;-83
2020/12/13 18:28:51;;;;;;;20.00;11.98;;;;;;;;;;4996133;28;20043;-82
2020/12/13 18:31:18;;;;;;;21.08;11.75;;;;;;;;;;5005558;28;20543;-82
2020/12/13 18:33:45;;;;;;;20.55;12.23;;;;;;;;;;5015443;28;20041;-83
2020/12/13 18:36:12;;;;;;;21.73;11.90;;;;;;;;;;4999073;28;20047;-83
2020/12/13 18:38:38;;;;;;;21.15;11.40;;;;;;;;;;5004916;28;20058;-83
2020/12/13 18:41:04;;;;;;;20.63;11.98;;;;;;;;;;4986299;28;20153;-81
2020/12/13 18:43:48;;;;;;;16.95;10.77;;;;;;;;;;5005586;28;20085;-83
2020/12/13 18:46:14;;;;;;;19.90;11.52;;;;;;;;;;5005200;28;20062;-83
2020/12/13 18:48:41;;;;;;;18.98;10.85;;;;;;;;;;4978894;28;20045;-86
2020/12/13 18:51:07;;;;;;;20.92;11.20;;;;;;;;;;4980907;28;20050;-83
2020/12/13 18:53:34;;;;;;;19.58;10.75;;;;;;;;;;4982051;28;20057;-84
2020/12/13 18:56:01;;;;;;;21.35;11.38;;;;;;;;;;5011818;28;20026;-81
2020/12/13 18:58:27;;;;;;;20.33;11.30;;;;;;;;;;4999887;28;20044;-81
2020/12/13 19:00:54;;;;;;;19.88;11.10;;;;;;;;;;5001904;28;20049;-82
2020/12/13 19:05:50;;;;;;;23.65;11.38;;;;;;;;;;5018683;28;20037;-82
2020/12/13 19:08:18;;;;;;;20.70;11.15;;;;;;;;;;4998412;28;20057;-81
2020/12/13 19:10:44;;;;;;;18.40;10.30;;;;;;;;;;4981323;28;20058;-84
2020/12/13 19:13:13;;;;;;;20.30;10.70;;;;;;;;;;4995605;28;20077;-79
2020/12/13 19:15:40;;;;;;;17.85;10.80;;;;;;;;;;4964740;28;20038;-84
2020/12/13 19:18:06;;;;;;;18.10;10.63;;;;;;;;;;4967372;28;20070;-85
2020/12/13 19:20:39;;;;;;;18.05;10.48;;;;;;;;;;4980563;28;20066;-87
2020/12/13 19:23:06;;;;;;;20.00;10.75;;;;;;;;;;4959336;28;20043;-86
2020/12/13 19:25:42;;;;;;;17.80;10.57;;;;;;;;;;4970436;28;20043;-87
2020/12/13 19:28:44;;;;;;;17.05;10.07;;;;;;;;;;4982884;28;20129;-88
2020/12/13 19:31:14;;;;;;;18.30;10.85;;;;;;;;;;4977787;28;20042;-89
2020/12/13 19:33:43;;;;;;;24.42;13.55;;;;;;;;;;4994998;28;20046;-88
2020/12/13 19:36:40;;;;;;;21.35;10.27;;;;;;;;;;4998556;28;20064;-89
2020/12/13 19:39:12;;;;;;;15.73;9.05;;;;;;;;;;5017980;28;20054;-87
2020/12/13 19:45:54;;;;;;;17.50;9.82;;;;;;;;;;4941455;29;20031;-87
2020/12/13 19:49:48;;;;;;;17.45;9.63;;;;;;;;;;4872735;29;20643;-87
2020/12/13 19:53:04;;;;;;;15.50;9.35;;;;;;;;;;4855953;29;20534;-88
2020/12/13 19:56:35;;;;;;;16.23;9.75;;;;;;;;;;4931423;28;20058;-89
2020/12/13 19:59:18;;;;;;;18.38;10.52;;;;;;;;;;4952742;28;20081;-87
2020/12/13 20:02:08;;;;;;;18.30;10.27;;;;;;;;;;4966590;28;20052;-90
2020/12/13 20:04:50;;;;;;;15.75;9.50;;;;;;;;;;4968972;28;20043;-87
2020/12/13 20:07:29;;;;;;;16.95;9.80;;;;;;;;;;4982330;28;20065;-86
2020/12/13 20:10:08;;;;;;;20.23;10.02;;;;;;;;;;5015067;28;20026;-87
2020/12/13 20:57:46;;;;;;;18.30;9.77;;;;;;;;;;4988684;28;20126;-90
2020/12/13 21:20:42;;;;;;;16.63;9.50;;;;;;;;;;4994399;28;20081;-84
2020/12/13 21:22:43;;;;;;;17.83;10.38;;;;;;;;;;4990598;28;20050;-86
2020/12/13 21:57:07;;;;;;;19.20;10.57;;;;;;;;;;4807694;29;20054;-86
2020/12/13 22:48:14;;;;;;;;;;;;;;;;;;;;;
2020/12/13 23:03:12;;;;;;;;;;;;;;;;;;;;;
2020/12/13 23:06:47;;;;;;;;;;;;;;;;;;;;;
2020/12/13 23:10:44;;;;;;;;;;;;;;;;;;;;;
2020/12/13 23:17:47;;;;;;;18.15;10.73;;;;;;;;;;4832744;29;20050;-86
2020/12/13 23:21:22;;;;;;;;;;;;;;;;;;;;;
2020/12/13 23:28:05;;;;;;;21.85;11.30;;;;;;;;;;4840570;29;20114;-87
2020/12/13 23:34:44;;;;;;;18.50;10.15;;;;;;;;;;4824204;29;20228;-88
2020/12/13 23:37:56;;;;;;;18.00;10.43;;;;;;;;;;4806749;29;20093;-88
2020/12/13 23:44:33;;;;;;;23.25;12.35;;;;;;;;;;4909242;29;20096;-87
2020/12/13 23:47:41;;;;;;;27.83;14.05;;;;;;;;;;4909190;28;20063;-85
2020/12/13 23:50:33;;;;;;;26.65;14.18;;;;;;;;;;4981457;28;20061;-87
2020/12/13 23:57:04;;;;;;;24.98;13.25;;;;;;;;;;4935384;29;20052;-86
2020/12/13 23:59:59;;;;;;;22.95;13.00;;;;;;;;;;4996577;28;20053;-88
